sensor_id;sensor_type;location;lat;lon;timestamp;P1;durP1;ratioP1;P2;durP2;ratioP2
35462;SDS011;21578;47.892;9.970;2023-05-21T00:03:52;14.50;;;11.47;;
35462;SDS011;21578;47.892;9.970;2023-05-21T00:08:39;12.77;;;11.47;;
35462;SDS011;21578;47.892;9.970;2023-05-21T00:13:27;19.33;;;13.63;;
35462;SDS011;21578;47.892;9.970;2023-05-21T00:18:13;13.50;;;11.23;;
35462;SDS011;21578;47.892;9.970;2023-05-21T00:23:02;25.00;;;17.63;;
35462;SDS011;21578;47.892;9.970;2023-05-21T00:27:49;13.73;;;10.70;;
35462;SDS011;21578;47.892;9.970;2023-05-21T00:32:36;11.87;;;9.93;;
35462;SDS011;21578;47.892;9.970;2023-05-21T00:37:23;9.93;;;8.93;;
35462;SDS011;21578;47.892;9.970;2023-05-21T00:42:11;9.30;;;8.30;;
35462;SDS011;21578;47.892;9.970;2023-05-21T00:47:02;16.33;;;12.83;;
35462;SDS011;21578;47.892;9.970;2023-05-21T00:51:50;11.87;;;10.50;;
35462;SDS011;21578;47.892;9.970;2023-05-21T00:56:38;9.13;;;8.23;;
35462;SDS011;21578;47.892;9.970;2023-05-21T01:01:27;8.27;;;7.43;;
35462;SDS011;21578;47.892;9.970;2023-05-21T01:06:18;9.57;;;7.93;;
35462;SDS011;21578;47.892;9.970;2023-05-21T01:11:05;8.83;;;6.70;;
35462;SDS011;21578;47.892;9.970;2023-05-21T01:15:53;6.90;;;6.20;;
35462;SDS011;21578;47.892;9.970;2023-05-21T01:20:43;6.47;;;5.87;;
35462;SDS011;21578;47.892;9.970;2023-05-21T01:25:33;6.83;;;6.20;;
35462;SDS011;21578;47.892;9.970;2023-05-21T01:30:20;7.97;;;6.40;;
35462;SDS011;21578;47.892;9.970;2023-05-21T01:35:08;22.90;;;11.93;;
35462;SDS011;21578;47.892;9.970;2023-05-21T01:39:59;7.53;;;5.83;;
35462;SDS011;21578;47.892;9.970;2023-05-21T01:44:54;8.77;;;6.67;;
35462;SDS011;21578;47.892;9.970;2023-05-21T01:49:42;16.40;;;10.60;;
35462;SDS011;21578;47.892;9.970;2023-05-21T01:54:29;10.93;;;7.87;;
35462;SDS011;21578;47.892;9.970;2023-05-21T01:59:16;14.73;;;8.97;;
35462;SDS011;21578;47.892;9.970;2023-05-21T02:04:05;6.43;;;5.60;;
35462;SDS011;21578;47.892;9.970;2023-05-21T02:08:52;7.73;;;6.23;;
35462;SDS011;21578;47.892;9.970;2023-05-21T02:13:39;6.83;;;5.53;;
35462;SDS011;21578;47.892;9.970;2023-05-21T02:18:27;6.97;;;5.43;;
35462;SDS011;21578;47.892;9.970;2023-05-21T02:23:15;9.43;;;7.13;;
35462;SDS011;21578;47.892;9.970;2023-05-21T02:28:02;10.37;;;7.23;;
35462;SDS011;21578;47.892;9.970;2023-05-21T02:32:49;8.67;;;6.23;;
35462;SDS011;21578;47.892;9.970;2023-05-21T02:37:36;7.70;;;6.37;;
35462;SDS011;21578;47.892;9.970;2023-05-21T02:42:25;6.00;;;5.40;;
35462;SDS011;21578;47.892;9.970;2023-05-21T02:47:12;5.80;;;5.23;;
35462;SDS011;21578;47.892;9.970;2023-05-21T02:51:59;6.50;;;5.67;;
35462;SDS011;21578;47.892;9.970;2023-05-21T02:56:46;7.00;;;5.50;;
35462;SDS011;21578;47.892;9.970;2023-05-21T03:01:34;10.00;;;8.43;;
35462;SDS011;21578;47.892;9.970;2023-05-21T03:06:21;6.20;;;5.60;;
35462;SDS011;21578;47.892;9.970;2023-05-21T03:11:08;6.53;;;5.87;;
35462;SDS011;21578;47.892;9.970;2023-05-21T03:15:55;5.90;;;5.40;;
35462;SDS011;21578;47.892;9.970;2023-05-21T03:20:43;6.77;;;6.00;;
35462;SDS011;21578;47.892;9.970;2023-05-21T03:25:30;7.23;;;5.80;;
35462;SDS011;21578;47.892;9.970;2023-05-21T03:30:17;7.57;;;6.83;;
35462;SDS011;21578;47.892;9.970;2023-05-21T03:35:04;6.70;;;6.10;;
35462;SDS011;21578;47.892;9.970;2023-05-21T03:39:53;6.97;;;5.93;;
35462;SDS011;21578;47.892;9.970;2023-05-21T03:44:40;7.20;;;6.30;;
35462;SDS011;21578;47.892;9.970;2023-05-21T03:49:26;7.30;;;6.60;;
35462;SDS011;21578;47.892;9.970;2023-05-21T03:54:13;10.37;;;6.60;;
35462;SDS011;21578;47.892;9.970;2023-05-21T03:59:02;6.73;;;6.03;;
35462;SDS011;21578;47.892;9.970;2023-05-21T04:03:49;6.97;;;5.97;;
35462;SDS011;21578;47.892;9.970;2023-05-21T04:08:35;6.57;;;5.90;;
35462;SDS011;21578;47.892;9.970;2023-05-21T04:13:23;7.00;;;6.30;;
35462;SDS011;21578;47.892;9.970;2023-05-21T04:18:13;7.40;;;6.10;;
35462;SDS011;21578;47.892;9.970;2023-05-21T04:23:00;6.23;;;5.63;;
35462;SDS011;21578;47.892;9.970;2023-05-21T04:27:48;6.97;;;6.10;;
35462;SDS011;21578;47.892;9.970;2023-05-21T04:32:34;7.60;;;6.90;;
35462;SDS011;21578;47.892;9.970;2023-05-21T04:37:23;8.63;;;6.57;;
35462;SDS011;21578;47.892;9.970;2023-05-21T04:42:11;11.13;;;8.47;;
35462;SDS011;21578;47.892;9.970;2023-05-21T04:46:58;11.83;;;9.30;;
35462;SDS011;21578;47.892;9.970;2023-05-21T04:51:46;9.53;;;7.73;;
35462;SDS011;21578;47.892;9.970;2023-05-21T04:56:34;9.50;;;7.73;;
35462;SDS011;21578;47.892;9.970;2023-05-21T05:01:21;9.30;;;8.40;;
35462;SDS011;21578;47.892;9.970;2023-05-21T05:06:09;9.00;;;8.10;;
35462;SDS011;21578;47.892;9.970;2023-05-21T05:10:56;8.00;;;7.20;;
35462;SDS011;21578;47.892;9.970;2023-05-21T05:15:44;18.70;;;13.80;;
35462;SDS011;21578;47.892;9.970;2023-05-21T05:20:32;21.63;;;18.23;;
35462;SDS011;21578;47.892;9.970;2023-05-21T05:25:19;18.33;;;15.37;;
35462;SDS011;21578;47.892;9.970;2023-05-21T05:30:06;12.27;;;10.83;;
35462;SDS011;21578;47.892;9.970;2023-05-21T05:34:55;10.73;;;9.23;;
35462;SDS011;21578;47.892;9.970;2023-05-21T05:39:42;15.67;;;14.13;;
35462;SDS011;21578;47.892;9.970;2023-05-21T05:44:29;14.50;;;12.53;;
35462;SDS011;21578;47.892;9.970;2023-05-21T05:49:16;16.30;;;13.30;;
35462;SDS011;21578;47.892;9.970;2023-05-21T05:54:04;14.87;;;12.80;;
35462;SDS011;21578;47.892;9.970;2023-05-21T05:58:51;14.37;;;12.87;;
35462;SDS011;21578;47.892;9.970;2023-05-21T06:03:38;14.00;;;11.93;;
35462;SDS011;21578;47.892;9.970;2023-05-21T06:08:24;10.83;;;9.67;;
35462;SDS011;21578;47.892;9.970;2023-05-21T06:13:13;10.87;;;9.33;;
35462;SDS011;21578;47.892;9.970;2023-05-21T06:17:59;10.83;;;9.33;;
35462;SDS011;21578;47.892;9.970;2023-05-21T06:22:46;10.63;;;9.33;;
35462;SDS011;21578;47.892;9.970;2023-05-21T06:27:33;9.10;;;8.20;;
35462;SDS011;21578;47.892;9.970;2023-05-21T06:32:21;9.33;;;8.43;;
35462;SDS011;21578;47.892;9.970;2023-05-21T06:37:09;9.60;;;8.43;;
35462;SDS011;21578;47.892;9.970;2023-05-21T06:41:56;10.13;;;9.13;;
35462;SDS011;21578;47.892;9.970;2023-05-21T06:46:43;9.53;;;8.63;;
35462;SDS011;21578;47.892;9.970;2023-05-21T06:51:31;9.57;;;8.60;;
35462;SDS011;21578;47.892;9.970;2023-05-21T06:56:18;11.87;;;7.97;;
35462;SDS011;21578;47.892;9.970;2023-05-21T07:01:05;8.73;;;7.93;;
35462;SDS011;21578;47.892;9.970;2023-05-21T07:05:52;13.40;;;8.53;;
35462;SDS011;21578;47.892;9.970;2023-05-21T07:10:40;9.57;;;8.67;;
35462;SDS011;21578;47.892;9.970;2023-05-21T07:15:27;10.70;;;9.50;;
35462;SDS011;21578;47.892;9.970;2023-05-21T07:20:14;10.27;;;9.13;;
35462;SDS011;21578;47.892;9.970;2023-05-21T07:25:03;8.60;;;7.43;;
35462;SDS011;21578;47.892;9.970;2023-05-21T07:29:52;7.43;;;6.63;;
35462;SDS011;21578;47.892;9.970;2023-05-21T07:34:38;6.67;;;5.93;;
35462;SDS011;21578;47.892;9.970;2023-05-21T07:39:25;6.27;;;5.60;;
35462;SDS011;21578;47.892;9.970;2023-05-21T07:44:12;7.40;;;5.53;;
35462;SDS011;21578;47.892;9.970;2023-05-21T07:49:01;7.67;;;5.53;;
35462;SDS011;21578;47.892;9.970;2023-05-21T07:53:48;5.97;;;5.47;;
35462;SDS011;21578;47.892;9.970;2023-05-21T07:58:40;5.63;;;5.13;;
35462;SDS011;21578;47.892;9.970;2023-05-21T08:03:29;6.40;;;5.53;;
35462;SDS011;21578;47.892;9.970;2023-05-21T08:08:18;5.97;;;5.40;;
35462;SDS011;21578;47.892;9.970;2023-05-21T08:13:06;6.43;;;5.30;;
35462;SDS011;21578;47.892;9.970;2023-05-21T08:17:52;7.53;;;6.10;;
35462;SDS011;21578;47.892;9.970;2023-05-21T08:22:39;7.17;;;5.50;;
35462;SDS011;21578;47.892;9.970;2023-05-21T08:27:29;9.53;;;5.97;;
35462;SDS011;21578;47.892;9.970;2023-05-21T08:32:15;8.53;;;6.67;;
35462;SDS011;21578;47.892;9.970;2023-05-21T08:37:03;12.87;;;9.07;;
35462;SDS011;21578;47.892;9.970;2023-05-21T08:41:50;7.50;;;5.90;;
35462;SDS011;21578;47.892;9.970;2023-05-21T08:46:49;6.83;;;6.20;;
35462;SDS011;21578;47.892;9.970;2023-05-21T08:51:36;6.10;;;5.53;;
35462;SDS011;21578;47.892;9.970;2023-05-21T08:56:23;6.27;;;5.67;;
35462;SDS011;21578;47.892;9.970;2023-05-21T09:01:11;6.43;;;5.83;;
35462;SDS011;21578;47.892;9.970;2023-05-21T09:06:00;6.17;;;5.33;;
35462;SDS011;21578;47.892;9.970;2023-05-21T09:10:48;5.40;;;4.90;;
35462;SDS011;21578;47.892;9.970;2023-05-21T09:15:36;5.70;;;5.20;;
35462;SDS011;21578;47.892;9.970;2023-05-21T09:20:24;6.27;;;5.67;;
35462;SDS011;21578;47.892;9.970;2023-05-21T09:25:13;7.93;;;5.50;;
35462;SDS011;21578;47.892;9.970;2023-05-21T09:30:01;5.53;;;5.03;;
35462;SDS011;21578;47.892;9.970;2023-05-21T09:34:50;6.40;;;5.30;;
35462;SDS011;21578;47.892;9.970;2023-05-21T09:39:37;6.87;;;6.27;;
35462;SDS011;21578;47.892;9.970;2023-05-21T09:44:27;6.63;;;5.67;;
35462;SDS011;21578;47.892;9.970;2023-05-21T09:49:21;5.43;;;4.73;;
35462;SDS011;21578;47.892;9.970;2023-05-21T09:54:10;4.40;;;3.60;;
35462;SDS011;21578;47.892;9.970;2023-05-21T09:58:57;3.60;;;3.30;;
35462;SDS011;21578;47.892;9.970;2023-05-21T10:03:49;4.87;;;3.53;;
35462;SDS011;21578;47.892;9.970;2023-05-21T10:08:41;7.33;;;3.87;;
35462;SDS011;21578;47.892;9.970;2023-05-21T10:13:33;6.83;;;6.27;;
35462;SDS011;21578;47.892;9.970;2023-05-21T10:18:24;7.77;;;7.07;;
35462;SDS011;21578;47.892;9.970;2023-05-21T10:23:14;7.03;;;6.43;;
35462;SDS011;21578;47.892;9.970;2023-05-21T10:28:02;6.60;;;5.90;;
35462;SDS011;21578;47.892;9.970;2023-05-21T10:32:52;7.83;;;5.53;;
35462;SDS011;21578;47.892;9.970;2023-05-21T10:37:42;6.40;;;5.67;;
35462;SDS011;21578;47.892;9.970;2023-05-21T10:48:05;5.80;;;5.30;;
35462;SDS011;21578;47.892;9.970;2023-05-21T10:53:07;4.60;;;4.30;;
35462;SDS011;21578;47.892;9.970;2023-05-21T10:58:12;5.20;;;4.70;;
35462;SDS011;21578;47.892;9.970;2023-05-21T11:03:10;6.17;;;5.30;;
35462;SDS011;21578;47.892;9.970;2023-05-21T11:07:59;5.57;;;4.77;;
35462;SDS011;21578;47.892;9.970;2023-05-21T11:17:53;7.40;;;5.30;;
35462;SDS011;21578;47.892;9.970;2023-05-21T11:22:42;5.50;;;4.70;;
35462;SDS011;21578;47.892;9.970;2023-05-21T11:27:31;4.50;;;4.03;;
35462;SDS011;21578;47.892;9.970;2023-05-21T11:32:19;4.27;;;3.70;;
35462;SDS011;21578;47.892;9.970;2023-05-21T11:37:28;6.57;;;4.67;;
35462;SDS011;21578;47.892;9.970;2023-05-21T11:42:26;5.47;;;4.97;;
35462;SDS011;21578;47.892;9.970;2023-05-21T11:47:15;4.37;;;3.33;;
35462;SDS011;21578;47.892;9.970;2023-05-21T11:52:03;4.57;;;4.10;;
35462;SDS011;21578;47.892;9.970;2023-05-21T11:56:52;5.80;;;3.53;;
35462;SDS011;21578;47.892;9.970;2023-05-21T12:01:41;4.37;;;2.70;;
35462;SDS011;21578;47.892;9.970;2023-05-21T12:06:28;3.60;;;3.30;;
35462;SDS011;21578;47.892;9.970;2023-05-21T12:11:15;4.83;;;3.50;;
35462;SDS011;21578;47.892;9.970;2023-05-21T12:16:04;3.70;;;2.77;;
35462;SDS011;21578;47.892;9.970;2023-05-21T12:20:55;4.63;;;2.73;;
35462;SDS011;21578;47.892;9.970;2023-05-21T12:25:42;3.00;;;2.80;;
35462;SDS011;21578;47.892;9.970;2023-05-21T12:30:29;3.13;;;2.93;;
35462;SDS011;21578;47.892;9.970;2023-05-21T12:35:20;3.30;;;3.00;;
35462;SDS011;21578;47.892;9.970;2023-05-21T12:40:08;2.97;;;2.33;;
35462;SDS011;21578;47.892;9.970;2023-05-21T12:44:56;3.57;;;2.93;;
35462;SDS011;21578;47.892;9.970;2023-05-21T12:49:44;2.10;;;2.00;;
35462;SDS011;21578;47.892;9.970;2023-05-21T12:54:34;3.00;;;2.27;;
35462;SDS011;21578;47.892;9.970;2023-05-21T12:59:21;3.67;;;2.30;;
35462;SDS011;21578;47.892;9.970;2023-05-21T13:04:08;3.27;;;2.57;;
35462;SDS011;21578;47.892;9.970;2023-05-21T13:08:55;3.25;;;2.45;;
35462;SDS011;21578;47.892;9.970;2023-05-21T13:13:43;2.60;;;2.40;;
35462;SDS011;21578;47.892;9.970;2023-05-21T13:18:30;4.67;;;2.60;;
35462;SDS011;21578;47.892;9.970;2023-05-21T13:23:17;2.78;;;2.65;;
35462;SDS011;21578;47.892;9.970;2023-05-21T13:28:04;4.13;;;2.53;;
35462;SDS011;21578;47.892;9.970;2023-05-21T13:32:55;2.85;;;2.65;;
35462;SDS011;21578;47.892;9.970;2023-05-21T13:37:42;3.57;;;3.00;;
35462;SDS011;21578;47.892;9.970;2023-05-21T13:42:30;4.43;;;2.85;;
35462;SDS011;21578;47.892;9.970;2023-05-21T13:47:17;4.55;;;3.30;;
35462;SDS011;21578;47.892;9.970;2023-05-21T13:52:05;3.67;;;3.38;;
35462;SDS011;21578;47.892;9.970;2023-05-21T13:56:53;3.72;;;3.33;;
35462;SDS011;21578;47.892;9.970;2023-05-21T14:01:40;7.45;;;4.05;;
35462;SDS011;21578;47.892;9.970;2023-05-21T14:06:28;4.30;;;3.83;;
35462;SDS011;21578;47.892;9.970;2023-05-21T14:11:18;6.65;;;3.95;;
35462;SDS011;21578;47.892;9.970;2023-05-21T14:16:06;3.08;;;2.88;;
35462;SDS011;21578;47.892;9.970;2023-05-21T14:20:53;3.88;;;3.40;;
35462;SDS011;21578;47.892;9.970;2023-05-21T14:25:40;6.17;;;2.90;;
35462;SDS011;21578;47.892;9.970;2023-05-21T14:30:28;3.00;;;2.73;;
35462;SDS011;21578;47.892;9.970;2023-05-21T14:35:15;4.20;;;2.80;;
35462;SDS011;21578;47.892;9.970;2023-05-21T14:40:02;3.05;;;2.75;;
35462;SDS011;21578;47.892;9.970;2023-05-21T14:44:51;4.82;;;3.30;;
35462;SDS011;21578;47.892;9.970;2023-05-21T14:49:40;3.20;;;2.97;;
35462;SDS011;21578;47.892;9.970;2023-05-21T14:54:26;3.33;;;3.03;;
35462;SDS011;21578;47.892;9.970;2023-05-21T14:59:13;6.07;;;3.47;;
35462;SDS011;21578;47.892;9.970;2023-05-21T15:04:00;3.77;;;3.40;;
35462;SDS011;21578;47.892;9.970;2023-05-21T15:08:49;4.20;;;3.77;;
35462;SDS011;21578;47.892;9.970;2023-05-21T15:13:36;5.88;;;4.10;;
35462;SDS011;21578;47.892;9.970;2023-05-21T15:18:23;4.53;;;4.13;;
35462;SDS011;21578;47.892;9.970;2023-05-21T15:23:10;6.47;;;3.67;;
35462;SDS011;21578;47.892;9.970;2023-05-21T15:27:58;4.13;;;3.73;;
35462;SDS011;21578;47.892;9.970;2023-05-21T15:32:45;4.57;;;4.07;;
35462;SDS011;21578;47.892;9.970;2023-05-21T15:37:32;4.93;;;4.10;;
35462;SDS011;21578;47.892;9.970;2023-05-21T15:42:19;4.77;;;4.07;;
35462;SDS011;21578;47.892;9.970;2023-05-21T15:47:07;4.07;;;3.77;;
35462;SDS011;21578;47.892;9.970;2023-05-21T15:51:55;5.67;;;4.10;;
35462;SDS011;21578;47.892;9.970;2023-05-21T15:56:44;5.50;;;4.77;;
35462;SDS011;21578;47.892;9.970;2023-05-21T16:01:31;3.87;;;3.50;;
35462;SDS011;21578;47.892;9.970;2023-05-21T16:06:20;4.03;;;3.73;;
35462;SDS011;21578;47.892;9.970;2023-05-21T16:11:07;6.63;;;4.78;;
35462;SDS011;21578;47.892;9.970;2023-05-21T16:15:54;5.87;;;4.07;;
35462;SDS011;21578;47.892;9.970;2023-05-21T16:20:41;4.53;;;4.17;;
35462;SDS011;21578;47.892;9.970;2023-05-21T16:25:29;4.00;;;3.70;;
35462;SDS011;21578;47.892;9.970;2023-05-21T16:30:16;4.20;;;3.90;;
35462;SDS011;21578;47.892;9.970;2023-05-21T16:35:03;4.20;;;3.60;;
35462;SDS011;21578;47.892;9.970;2023-05-21T16:39:51;4.30;;;3.90;;
35462;SDS011;21578;47.892;9.970;2023-05-21T16:44:39;4.47;;;3.80;;
35462;SDS011;21578;47.892;9.970;2023-05-21T16:49:26;4.87;;;3.60;;
35462;SDS011;21578;47.892;9.970;2023-05-21T16:54:13;4.07;;;3.67;;
35462;SDS011;21578;47.892;9.970;2023-05-21T16:58:59;3.57;;;3.27;;
35462;SDS011;21578;47.892;9.970;2023-05-21T17:03:48;4.30;;;3.90;;
35462;SDS011;21578;47.892;9.970;2023-05-21T17:08:35;4.23;;;3.83;;
35462;SDS011;21578;47.892;9.970;2023-05-21T17:13:21;4.70;;;4.20;;
35462;SDS011;21578;47.892;9.970;2023-05-21T17:18:08;8.10;;;4.00;;
35462;SDS011;21578;47.892;9.970;2023-05-21T17:22:57;5.33;;;3.50;;
35462;SDS011;21578;47.892;9.970;2023-05-21T17:27:44;4.03;;;3.73;;
35462;SDS011;21578;47.892;9.970;2023-05-21T17:32:31;5.53;;;3.70;;
35462;SDS011;21578;47.892;9.970;2023-05-21T17:37:18;5.20;;;4.20;;
35462;SDS011;21578;47.892;9.970;2023-05-21T17:42:06;4.07;;;3.77;;
35462;SDS011;21578;47.892;9.970;2023-05-21T17:46:53;5.33;;;3.50;;
35462;SDS011;21578;47.892;9.970;2023-05-21T17:51:41;5.30;;;3.67;;
35462;SDS011;21578;47.892;9.970;2023-05-21T17:56:29;4.23;;;3.93;;
35462;SDS011;21578;47.892;9.970;2023-05-21T18:01:19;6.03;;;4.00;;
35462;SDS011;21578;47.892;9.970;2023-05-21T18:06:06;4.83;;;4.43;;
35462;SDS011;21578;47.892;9.970;2023-05-21T18:10:53;4.83;;;4.10;;
35462;SDS011;21578;47.892;9.970;2023-05-21T18:15:41;4.27;;;3.87;;
35462;SDS011;21578;47.892;9.970;2023-05-21T18:20:29;4.33;;;3.97;;
35462;SDS011;21578;47.892;9.970;2023-05-21T18:25:16;4.83;;;4.40;;
35462;SDS011;21578;47.892;9.970;2023-05-21T18:30:03;4.63;;;3.63;;
35462;SDS011;21578;47.892;9.970;2023-05-21T18:34:50;5.03;;;4.47;;
35462;SDS011;21578;47.892;9.970;2023-05-21T18:39:39;5.03;;;4.27;;
35462;SDS011;21578;47.892;9.970;2023-05-21T18:44:26;5.93;;;4.20;;
35462;SDS011;21578;47.892;9.970;2023-05-21T18:49:14;6.03;;;3.93;;
35462;SDS011;21578;47.892;9.970;2023-05-21T18:54:01;4.60;;;4.20;;
35462;SDS011;21578;47.892;9.970;2023-05-21T18:58:50;5.03;;;4.30;;
35462;SDS011;21578;47.892;9.970;2023-05-21T19:03:36;4.77;;;4.37;;
35462;SDS011;21578;47.892;9.970;2023-05-21T19:08:23;5.27;;;4.50;;
35462;SDS011;21578;47.892;9.970;2023-05-21T19:13:10;4.97;;;4.37;;
35462;SDS011;21578;47.892;9.970;2023-05-21T19:17:59;5.70;;;4.00;;
35462;SDS011;21578;47.892;9.970;2023-05-21T19:22:47;6.30;;;4.10;;
35462;SDS011;21578;47.892;9.970;2023-05-21T19:27:34;5.73;;;4.17;;
35462;SDS011;21578;47.892;9.970;2023-05-21T19:32:21;5.33;;;4.60;;
35462;SDS011;21578;47.892;9.970;2023-05-21T19:37:10;4.70;;;4.20;;
35462;SDS011;21578;47.892;9.970;2023-05-21T19:41:56;4.43;;;4.03;;
35462;SDS011;21578;47.892;9.970;2023-05-21T19:46:43;5.00;;;4.60;;
35462;SDS011;21578;47.892;9.970;2023-05-21T19:51:30;5.73;;;4.50;;
35462;SDS011;21578;47.892;9.970;2023-05-21T19:56:19;5.33;;;4.47;;
35462;SDS011;21578;47.892;9.970;2023-05-21T20:01:06;5.47;;;4.20;;
35462;SDS011;21578;47.892;9.970;2023-05-21T20:05:53;4.70;;;4.20;;
35462;SDS011;21578;47.892;9.970;2023-05-21T20:10:41;5.20;;;4.23;;
35462;SDS011;21578;47.892;9.970;2023-05-21T20:15:29;6.27;;;4.70;;
35462;SDS011;21578;47.892;9.970;2023-05-21T20:20:16;5.20;;;4.80;;
35462;SDS011;21578;47.892;9.970;2023-05-21T20:25:07;6.40;;;4.27;;
35462;SDS011;21578;47.892;9.970;2023-05-21T20:29:54;4.93;;;4.40;;
35462;SDS011;21578;47.892;9.970;2023-05-21T20:34:42;5.70;;;4.70;;
35462;SDS011;21578;47.892;9.970;2023-05-21T20:39:32;6.13;;;4.97;;
35462;SDS011;21578;47.892;9.970;2023-05-21T20:44:21;6.10;;;4.90;;
35462;SDS011;21578;47.892;9.970;2023-05-21T20:49:09;5.17;;;4.77;;
35462;SDS011;21578;47.892;9.970;2023-05-21T20:53:58;8.07;;;5.20;;
35462;SDS011;21578;47.892;9.970;2023-05-21T20:58:45;6.33;;;4.80;;
35462;SDS011;21578;47.892;9.970;2023-05-21T21:03:32;5.33;;;4.83;;
35462;SDS011;21578;47.892;9.970;2023-05-21T21:08:19;6.67;;;5.80;;
35462;SDS011;21578;47.892;9.970;2023-05-21T21:13:07;10.03;;;5.83;;
35462;SDS011;21578;47.892;9.970;2023-05-21T21:17:54;8.27;;;5.63;;
35462;SDS011;21578;47.892;9.970;2023-05-21T21:22:41;6.40;;;5.43;;
35462;SDS011;21578;47.892;9.970;2023-05-21T21:27:28;11.00;;;7.90;;
35462;SDS011;21578;47.892;9.970;2023-05-21T21:32:16;23.13;;;20.63;;
35462;SDS011;21578;47.892;9.970;2023-05-21T21:37:03;20.40;;;18.17;;
35462;SDS011;21578;47.892;9.970;2023-05-21T21:41:50;14.83;;;13.33;;
35462;SDS011;21578;47.892;9.970;2023-05-21T21:46:37;8.87;;;7.97;;
35462;SDS011;21578;47.892;9.970;2023-05-21T21:51:26;8.10;;;6.83;;
35462;SDS011;21578;47.892;9.970;2023-05-21T21:56:12;7.63;;;6.83;;
35462;SDS011;21578;47.892;9.970;2023-05-21T22:01:00;7.97;;;7.17;;
35462;SDS011;21578;47.892;9.970;2023-05-21T22:05:47;7.97;;;7.17;;
35462;SDS011;21578;47.892;9.970;2023-05-21T22:10:36;7.63;;;6.20;;
35462;SDS011;21578;47.892;9.970;2023-05-21T22:15:23;7.60;;;6.73;;
35462;SDS011;21578;47.892;9.970;2023-05-21T22:20:12;7.77;;;6.97;;
35462;SDS011;21578;47.892;9.970;2023-05-21T22:25:01;7.80;;;7.00;;
35462;SDS011;21578;47.892;9.970;2023-05-21T22:29:49;10.23;;;7.13;;
35462;SDS011;21578;47.892;9.970;2023-05-21T22:34:36;9.23;;;7.10;;
35462;SDS011;21578;47.892;9.970;2023-05-21T22:39:23;9.67;;;7.57;;
35462;SDS011;21578;47.892;9.970;2023-05-21T22:44:10;8.43;;;7.63;;
35462;SDS011;21578;47.892;9.970;2023-05-21T22:48:58;8.00;;;7.20;;
35462;SDS011;21578;47.892;9.970;2023-05-21T22:53:45;7.63;;;6.87;;
35462;SDS011;21578;47.892;9.970;2023-05-21T22:58:32;7.67;;;6.97;;
35462;SDS011;21578;47.892;9.970;2023-05-21T23:03:19;9.03;;;7.03;;
35462;SDS011;21578;47.892;9.970;2023-05-21T23:08:07;7.90;;;7.10;;
35462;SDS011;21578;47.892;9.970;2023-05-21T23:12:54;11.37;;;7.80;;
35462;SDS011;21578;47.892;9.970;2023-05-21T23:17:41;8.20;;;7.40;;
35462;SDS011;21578;47.892;9.970;2023-05-21T23:22:28;11.90;;;8.00;;
35462;SDS011;21578;47.892;9.970;2023-05-21T23:27:17;10.73;;;7.20;;
35462;SDS011;21578;47.892;9.970;2023-05-21T23:32:04;9.10;;;7.23;;
35462;SDS011;21578;47.892;9.970;2023-05-21T23:36:51;8.50;;;7.70;;
35462;SDS011;21578;47.892;9.970;2023-05-21T23:41:38;8.17;;;7.40;;
35462;SDS011;21578;47.892;9.970;2023-05-21T23:46:26;10.70;;;8.00;;
35462;SDS011;21578;47.892;9.970;2023-05-21T23:51:13;8.20;;;7.40;;
35462;SDS011;21578;47.892;9.970;2023-05-21T23:56:02;8.13;;;7.30;;
